Terminal Aerodrome Forecast
Issued by NWS

Home | Current Version | Previous Version | Text Only | Print | Product List | Glossary On
Versions: 1 2 3 4 5 6 7 8 9 10 11 12 13 14 15 16
000
FTUS46 KHNX 020747 AAA
TAFMER
TAF AMD
KMER 020747Z 0208/0306 15007KT P6SM SCT060 BKN100
     FM021000 VRB03KT P6SM VCSH BKN060
     FM022000 VRB05KT P6SM VCTS BKN050CB
     FM030400 VRB03KT P6SM SCT060=

USA.gov is the U.S. government's official web portal to all federal, state and local government web resources and services.